Wales, AK

9:55 AM AKST on February 09, 2016 (GMT -0900)
Tin City LRRS | | Change Station
CLOSE
Current Station
Airport
Location: Tin City,
Elevation: 272 ft
Nearby Weather Stations

Elev 272 ft 65.56 °N, 167.92 °W | Updated 19 minutes ago

Light Snow Showers
Light Showers Snow
7 °F
Feels Like -13 °F
N
20
Wind Variable Wind from NE

Today
High -- | Low -- °F
--% Chance of Precip.
Yesterday
High -- | Low -- °F
Precip. -- in
Pressure 29.95 in
Visibility 1.8 miles
Clouds Clear
Windchill -13 °F
Dew Point 3 °F
Humidity 85%
Rainfall 0.00 in
Snow Depth Not available.
10:36 AM 6:16 PM
New Moon, 2% visible
SPECI PATC 091836Z AUTO 04017KT 1 3/4SM -SHSN CLR M14/M16 A2992 RMK AO2 SLP141
Pressure 29.95 in
Visibility 1.8 miles
Clouds Clear
Windchill -13 °F
Dew Point 3 °F
Humidity 85%
Rainfall 0.00 in
Snow Depth Not available.
10:36 AM 6:16 PM
New Moon, 2% visible
SPECI PATC 091836Z AUTO 04017KT 1 3/4SM -SHSN CLR M14/M16 A2992 RMK AO2 SLP141

10-Day Weather Forecast

Almanac

Astronomy

Feb. 09, 2016 Rise Set
Actual Time
Civil Twilight
Nautical Twilight
Astronomical Twilight
Moon
Length of Visible Light
Length of Day
Tomorrow will be .
, % of the Moon is Illuminated

Today's Extremes

State Highs State Lows

Community

WunderPhotos

Upload Photos

1,891,660 photos uploaded!

WunderBlog® & News

Nearby

Air Quality

  Air Quality AQ Index Pollutant
Not available.

Snow Depth

Station Depth Elevation

Earthquake Activity

City Distance Mag. Time & Date
Minimum magnitude displayed is 2.5.

Coastal Water Temperatures

Place Temperature

Stations

Nearby Weather Stations

Station Location Temp. Windchill Dew Point Humidity Wind Precip. Elev Updated Type
                   

Watches & Warnings

There are currently no watches in effect.